Time;durP1;ratioP1;P1;durP2;ratioP2;P2;SDS_P1;SDS_P2;PMS_P1;PMS_P2;Temp;Humidity;BMP_temperature;BMP_pressure;BME280_temperature;BME280_humidity;BME280_pressure;Samples;Min_cycle;Max_cycle;Signal;HPM_P1;HPM_P2
2023/01/04 00:01:21;;;;;;;34.75;18.70;;;;;;;7.37;75.66;102283.36;1786059;79;25751;-59
2023/01/04 00:03:49;;;;;;;30.77;17.62;;;;;;;7.36;75.56;102284.30;1783670;80;25791;-59
2023/01/04 00:06:17;;;;;;;31.77;17.25;;;;;;;7.36;75.61;102281.63;1785008;80;26737;-59
2023/01/04 00:08:43;;;;;;;30.15;17.80;;;;;;;7.38;75.73;102278.86;1784727;80;25738;-58
2023/01/04 00:11:14;;;;;;;32.50;18.00;;;;;;;7.41;75.77;102281.39;1785054;80;27664;-59
2023/01/04 00:13:41;;;;;;;31.65;18.70;;;;;;;7.37;75.60;102283.36;1789187;80;25729;-60
2023/01/04 00:16:13;;;;;;;27.30;17.50;;;;;;;7.35;75.63;102299.97;1783824;80;25776;-59
2023/01/04 00:18:41;;;;;;;31.23;18.48;;;;;;;7.34;75.71;102304.47;1778828;80;25691;-59
2023/01/04 00:21:23;;;;;;;34.45;17.80;;;;;;;7.31;75.63;102318.00;1771191;80;25795;-59
2023/01/04 00:23:53;;;;;;;30.65;16.02;;;;;;;7.26;76.13;102318.68;1769966;80;27421;-59
2023/01/04 00:26:27;;;;;;;31.93;17.48;;;;;;;7.25;76.73;102311.63;1752480;80;25805;-59
2023/01/04 00:29:00;;;;;;;28.30;17.52;;;;;;;7.31;76.90;102314.44;1776596;80;25933;-59
2023/01/04 00:31:28;;;;;;;32.33;16.73;;;;;;;7.33;76.66;102315.23;1772376;80;32521;-59
2023/01/04 00:33:57;;;;;;;29.18;15.95;;;;;;;7.32;76.40;102319.73;1768136;79;25794;-59
2023/01/04 00:36:25;;;;;;;26.45;15.58;;;;;;;7.30;76.54;102318.09;1767077;80;27397;-59
2023/01/04 00:39:08;;;;;;;27.70;16.10;;;;;;;7.28;76.65;102319.48;1779338;79;25812;-59
2023/01/04 00:41:47;;;;;;;34.80;15.95;;;;;;;7.26;76.60;102323.19;1727839;82;25739;-59
2023/01/04 00:44:15;;;;;;;28.25;13.83;;;;;;;7.24;76.36;102325.06;1776214;79;25769;-59
2023/01/04 00:46:42;;;;;;;30.52;15.55;;;;;;;7.18;76.74;102328.45;1774770;80;25793;-59
2023/01/04 00:49:11;;;;;;;24.02;15.23;;;;;;;7.18;77.45;102331.13;1779633;80;27440;-59
2023/01/04 00:51:40;;;;;;;27.90;14.78;;;;;;;7.14;77.10;102337.56;1769256;80;25746;-59
2023/01/04 00:54:14;;;;;;;30.17;14.58;;;;;;;7.07;76.88;102336.13;1743791;82;25801;-59
2023/01/04 00:56:42;;;;;;;26.50;13.90;;;;;;;7.05;77.32;102342.02;1743482;82;27947;-59
2023/01/04 00:59:12;;;;;;;21.85;13.83;;;;;;;7.05;77.89;102338.01;1743322;82;26402;-58
2023/01/04 01:01:40;;;;;;;21.97;13.22;;;;;;;7.08;77.59;102336.53;1743994;82;28522;-59
2023/01/04 01:04:09;;;;;;;21.55;12.03;;;;;;;7.13;77.38;102327.80;1763666;80;26388;-59
2023/01/04 01:06:35;;;;;;;24.90;13.98;;;;;;;7.18;77.35;102328.45;1770767;80;25802;-59
2023/01/04 01:09:03;;;;;;;26.42;13.40;;;;;;;7.25;77.21;102332.16;1770667;80;25968;-58
2023/01/04 01:11:30;;;;;;;27.58;12.18;;;;;;;7.30;77.08;102332.81;1772992;80;25758;-59
2023/01/04 01:13:58;;;;;;;20.60;12.35;;;;;;;7.29;76.79;102337.28;1778551;80;27425;-59
2023/01/04 01:16:26;;;;;;;24.57;11.90;;;;;;;7.30;76.76;102342.18;1767773;80;25787;-59
2023/01/04 01:18:54;;;;;;;26.50;13.80;;;;;;;7.34;76.69;102341.06;1756121;81;25700;-59
2023/01/04 01:21:26;;;;;;;22.90;13.05;;;;;;;7.36;76.64;102336.02;1756683;81;25900;-58
2023/01/04 01:23:54;;;;;;;24.50;13.05;;;;;;;7.39;76.61;102342.17;1757410;81;25775;-58
2023/01/04 01:26:24;;;;;;;22.15;12.58;;;;;;;7.41;76.64;102341.15;1758972;81;27573;-59
2023/01/04 01:28:52;;;;;;;29.82;14.40;;;;;;;7.44;76.57;102343.69;1758869;81;25807;-59
2023/01/04 01:31:23;;;;;;;22.02;12.30;;;;;;;7.46;76.64;102344.48;1759106;81;26256;-59
2023/01/04 01:33:53;;;;;;;24.32;12.30;;;;;;;7.43;76.76;102343.28;1749667;81;25843;-59
2023/01/04 01:36:22;;;;;;;24.10;13.55;;;;;;;7.43;76.76;102346.45;1742409;82;25777;-59
2023/01/04 01:38:49;;;;;;;20.85;12.95;;;;;;;7.41;76.89;102342.98;1711589;82;27474;-59
2023/01/04 01:41:30;;;;;;;26.05;11.68;;;;;;;7.36;76.82;102337.36;1720915;81;25936;-59
2023/01/04 01:44:08;;;;;;;24.45;13.40;;;;;;;7.36;76.86;102340.53;1752268;81;25791;-60
2023/01/04 01:46:43;;;;;;;23.95;11.80;;;;;;;7.35;76.62;102330.75;1739591;81;25818;-59
2023/01/04 01:49:24;;;;;;;23.12;11.43;;;;;;;7.36;76.55;102333.83;1738704;82;25455;-59
2023/01/04 01:51:54;;;;;;;18.37;11.35;;;;;;;7.34;76.09;102335.72;1746030;80;28288;-59
2023/01/04 01:54:30;;;;;;;22.13;11.12;;;;;;;7.31;76.20;102337.20;1744816;80;25498;-59
2023/01/04 01:57:00;;;;;;;21.80;11.30;;;;;;;7.30;76.16;102332.33;1745588;80;26653;-59
2023/01/04 01:59:31;;;;;;;22.07;11.10;;;;;;;7.29;76.03;102334.60;1745746;82;25823;-59
2023/01/04 02:01:58;;;;;;;18.25;10.15;;;;;;;7.28;75.76;102326.66;1745787;80;25795;-59
2023/01/04 02:04:25;;;;;;;19.00;9.28;;;;;;;7.26;75.15;102325.86;1745918;80;28556;-59
2023/01/04 02:06:56;;;;;;;15.72;8.30;;;;;;;7.27;74.24;102330.28;1746018;80;25899;-59
2023/01/04 02:09:23;;;;;;;13.72;7.25;;;;;;;7.25;73.17;102328.14;1742932;81;25780;-59
2023/01/04 02:11:50;;;;;;;17.37;8.00;;;;;;;7.23;72.39;102334.03;1739013;82;26830;-60
2023/01/04 02:14:28;;;;;;;13.95;8.00;;;;;;;7.22;72.76;102333.18;1738591;82;25803;-59
2023/01/04 02:17:34;;;;;;;12.65;7.78;;;;;;;7.20;72.56;102336.39;1736110;80;27838;-59
2023/01/04 02:20:28;;;;;;;17.12;7.55;;;;;;;7.17;72.68;102333.89;1731051;82;25823;-59
2023/01/04 02:23:18;;;;;;;15.68;7.35;;;;;;;7.13;72.26;102326.45;1715223;83;25939;-59
2023/01/04 02:26:13;;;;;;;16.30;7.60;;;;;;;7.14;72.50;102320.65;1764924;80;25843;-59
2023/01/04 02:29:06;;;;;;;17.05;7.50;;;;;;;7.11;72.33;102320.79;1773702;80;26415;-59
2023/01/04 02:31:53;;;;;;;16.10;6.85;;;;;;;7.08;72.35;102331.67;1771573;80;27563;-59
2023/01/04 02:34:47;;;;;;;13.68;6.33;;;;;;;7.04;72.12;102333.14;1784596;78;25887;-60
2023/01/04 02:37:26;;;;;;;16.48;7.33;;;;;;;7.01;71.88;102343.13;1788577;78;25469;-59
2023/01/04 02:40:07;;;;;;;13.53;7.22;;;;;;;7.00;72.03;102346.75;1813230;79;25874;-59
2023/01/04 02:45:47;;;;;;;14.68;7.00;;;;;;;7.00;71.72;102349.42;1813330;79;27708;-60
2023/01/04 02:51:01;;;;;;;13.98;6.53;;;;;;;6.93;71.12;102351.52;1769899;80;25744;-59
2023/01/04 02:53:39;;;;;;;12.28;5.72;;;;;;;6.90;70.81;102347.67;1761758;81;25845;-59
2023/01/04 02:56:35;;;;;;;10.98;6.08;;;;;;;6.89;70.55;102348.13;1761781;80;27377;-59
2023/01/04 02:59:32;;;;;;;11.97;5.37;;;;;;;6.87;70.49;102354.01;1761187;80;27445;-59
2023/01/04 03:08:32;;;;;;;11.53;6.00;;;;;;;6.82;70.52;102361.40;1783522;79;25832;-59
2023/01/04 03:13:49;;;;;;;12.35;6.75;;;;;;;6.81;70.57;102356.98;1706761;83;29733;-60
2023/01/04 03:16:21;;;;;;;14.53;7.05;;;;;;;6.79;70.60;102353.99;1769915;80;25731;-60
2023/01/04 03:18:52;;;;;;;12.85;7.55;;;;;;;6.78;70.75;102355.78;1760232;80;25882;-59
2023/01/04 03:21:22;;;;;;;17.05;7.28;;;;;;;6.81;70.87;102359.66;1753510;81;25988;-59
2023/01/04 03:35:26;;;;;;;13.50;7.60;;;;;;;7.12;71.66;102359.54;1719001;82;25815;-59
2023/01/04 03:50:33;;;;;;;22.35;9.10;;;;;;;7.23;71.69;102359.46;1770856;80;25784;-59
2023/01/04 03:53:00;;;;;;;12.73;6.53;;;;;;;7.23;71.93;102357.67;1768428;80;25762;-59
2023/01/04 03:55:29;;;;;;;13.72;7.33;;;;;;;7.13;70.69;102362.59;1760074;81;27613;-60
2023/01/04 03:57:58;;;;;;;17.95;7.80;;;;;;;7.01;70.62;102364.05;1765283;80;27317;-59
2023/01/04 04:00:26;;;;;;;18.77;7.55;;;;;;;7.01;71.09;102364.05;1774118;80;25805;-59
2023/01/04 04:02:53;;;;;;;21.87;8.30;;;;;;;7.03;71.23;102368.86;1774350;80;27973;-60
2023/01/04 04:13:48;;;;;;;16.30;7.60;;;;;;;7.03;70.42;102380.91;1776809;79;25721;-60
2023/01/04 04:16:16;;;;;;;11.05;7.03;;;;;;;7.00;70.26;102382.87;1769261;80;25700;-60
2023/01/04 04:18:43;;;;;;;9.98;5.85;;;;;;;7.00;70.46;102390.89;1763912;80;26207;-59
2023/01/04 04:21:09;;;;;;;7.15;4.80;;;;;;;6.93;69.44;102393.47;1772573;80;27454;-60
2023/01/04 04:23:36;;;;;;;12.95;5.37;;;;;;;6.84;69.47;102401.45;1774296;80;26445;-59
2023/01/04 04:26:03;;;;;;;10.28;5.12;;;;;;;6.78;69.30;102409.28;1774270;80;25654;-60
2023/01/04 04:28:31;;;;;;;12.47;5.87;;;;;;;6.73;69.28;102407.30;1774357;80;25795;-60
2023/01/04 04:30:58;;;;;;;15.00;5.37;;;;;;;6.68;69.01;102407.52;1774427;80;25723;-59
2023/01/04 04:33:25;;;;;;;10.45;5.40;;;;;;;6.67;69.33;102412.45;1771665;80;27479;-60
2023/01/04 04:35:54;;;;;;;8.63;4.85;;;;;;;6.71;69.53;102413.19;1774012;80;25753;-60
2023/01/04 04:38:21;;;;;;;9.18;4.72;;;;;;;6.74;69.10;102419.25;1763351;80;25817;-61
2023/01/04 04:43:34;;;;;;;13.08;5.55;;;;;;;6.73;68.93;102422.86;1774606;80;25800;-59
2023/01/04 04:46:03;;;;;;;13.45;5.95;;;;;;;6.71;68.66;102418.53;1774483;80;27474;-59
2023/01/04 04:48:30;;;;;;;14.10;5.70;;;;;;;6.69;68.63;102419.06;1774338;80;25801;-59
2023/01/04 04:50:57;;;;;;;10.00;5.20;;;;;;;6.70;68.65;102417.68;1771311;79;25741;-60
2023/01/04 04:53:25;;;;;;;5.33;3.52;;;;;;;6.72;68.25;102426.95;1778757;79;25859;-60
2023/01/04 04:55:53;;;;;;;8.00;3.90;;;;;;;6.70;68.06;102424.81;1782435;79;25745;-59
2023/01/04 04:58:20;;;;;;;9.63;5.12;;;;;;;6.69;67.99;102425.75;1782066;79;28375;-59
2023/01/04 05:00:47;;;;;;;5.65;3.45;;;;;;;6.71;68.03;102425.22;1784985;79;25831;-59
2023/01/04 05:03:14;;;;;;;6.22;3.35;;;;;;;6.72;67.99;102430.97;1781710;79;25777;-59
2023/01/04 05:05:41;;;;;;;6.60;4.03;;;;;;;6.74;68.21;102436.64;1787306;79;26602;-60
2023/01/04 05:08:09;;;;;;;6.28;3.83;;;;;;;6.77;68.05;102434.29;1798146;79;25877;-59
2023/01/04 05:10:37;;;;;;;6.03;3.10;;;;;;;6.79;68.43;102427.55;1808520;79;27561;-59
2023/01/04 05:13:06;;;;;;;6.10;3.80;;;;;;;6.82;68.15;102428.27;1808062;79;25856;-59
2023/01/04 05:15:40;;;;;;;14.00;4.50;;;;;;;6.84;68.41;102422.84;1808730;79;25693;-59
2023/01/04 05:18:09;;;;;;;10.28;4.60;;;;;;;6.88;68.55;102427.98;1799459;79;26432;-60
2023/01/04 05:20:36;;;;;;;10.05;3.98;;;;;;;6.96;68.63;102424.07;1795700;79;25746;-59
2023/01/04 05:23:04;;;;;;;9.78;4.97;;;;;;;7.03;68.61;102430.90;1796815;79;27465;-59
2023/01/04 05:25:31;;;;;;;8.63;4.53;;;;;;;7.09;68.50;102428.38;1779695;78;25820;-60
2023/01/04 05:27:58;;;;;;;11.03;4.78;;;;;;;7.07;67.99;102420.42;1780579;80;25702;-59
2023/01/04 05:33:10;;;;;;;10.98;4.62;;;;;;;7.09;68.00;102424.36;1783874;79;25790;-59
2023/01/04 05:35:37;;;;;;;9.68;5.42;;;;;;;7.05;67.29;102430.33;1783725;80;28508;-59
2023/01/04 05:38:05;;;;;;;11.38;5.12;;;;;;;6.97;66.45;102436.52;1783347;80;25506;-59
2023/01/04 05:40:32;;;;;;;8.70;5.80;;;;;;;6.92;66.92;102433.20;1777966;80;25688;-59
2023/01/04 05:42:59;;;;;;;10.18;6.00;;;;;;;6.92;67.20;102432.72;1780213;79;25842;-60
2023/01/04 05:45:26;;;;;;;10.68;6.45;;;;;;;6.92;67.17;102437.21;1676230;83;25738;-60
2023/01/04 05:47:53;;;;;;;11.30;6.08;;;;;;;6.87;66.90;102436.94;1760410;79;27720;-60
2023/01/04 05:50:22;;;;;;;10.15;5.40;;;;;;;6.85;67.16;102436.17;1772541;79;25850;-60
2023/01/04 05:52:50;;;;;;;10.80;5.53;;;;;;;6.81;66.98;102439.06;1740399;81;25785;-59
2023/01/04 05:55:17;;;;;;;14.73;5.70;;;;;;;6.74;66.73;102441.14;1750920;80;25913;-60
2023/01/04 05:57:43;;;;;;;15.18;8.50;;;;;;;6.65;66.91;102434.87;1759482;80;25946;-61
2023/01/04 06:00:13;;;;;;;16.48;9.78;;;;;;;6.58;66.76;102446.30;1765754;80;28285;-58
2023/01/04 06:02:42;;;;;;;19.05;10.78;;;;;;;6.51;66.80;102451.05;1761323;80;25945;-60
2023/01/04 06:05:11;;;;;;;16.87;10.03;;;;;;;6.47;66.95;102453.47;1774569;79;26439;-58
2023/01/04 06:07:39;;;;;;;18.55;9.00;;;;;;;6.47;67.08;102458.83;1778205;79;26173;-59
2023/01/04 06:10:09;;;;;;;14.98;6.97;;;;;;;6.47;67.26;102462.83;1783020;79;25717;-59
2023/01/04 06:12:36;;;;;;;11.30;6.22;;;;;;;6.48;67.20;102465.02;1768040;79;27340;-58
2023/01/04 06:15:05;;;;;;;12.30;6.20;;;;;;;6.47;67.38;102465.95;1780617;80;25936;-59
2023/01/04 06:17:32;;;;;;;9.88;5.35;;;;;;;6.46;67.27;102464.22;1780518;80;25723;-58
2023/01/04 06:19:59;;;;;;;10.18;5.60;;;;;;;6.42;67.16;102470.17;1742087;80;25904;-59
2023/01/04 06:22:27;;;;;;;10.03;5.30;;;;;;;6.39;67.17;102473.00;1734654;82;27441;-58
2023/01/04 06:24:55;;;;;;;11.68;5.33;;;;;;;6.36;67.05;102470.00;1734982;82;27628;-58
2023/01/04 06:27:22;;;;;;;11.33;6.47;;;;;;;6.34;67.15;102465.17;1721204;82;25770;-58
2023/01/04 06:29:48;;;;;;;24.40;6.87;;;;;;;6.37;67.29;102470.37;1733283;82;25758;-58
2023/01/04 06:32:15;;;;;;;9.73;5.33;;;;;;;6.39;67.40;102471.17;1727141;82;25818;-58
2023/01/04 06:34:42;;;;;;;11.85;6.20;;;;;;;6.42;67.36;102469.72;1726329;82;25950;-58
2023/01/04 06:37:09;;;;;;;13.55;5.78;;;;;;;6.47;67.41;102474.86;1728975;82;27577;-58
2023/01/04 06:39:37;;;;;;;11.57;6.03;;;;;;;6.51;67.48;102478.27;1786131;80;25794;-58
2023/01/04 06:42:04;;;;;;;12.95;6.30;;;;;;;6.58;67.48;102481.06;1761708;80;26619;-58
2023/01/04 06:44:31;;;;;;;15.53;8.98;;;;;;;6.63;67.47;102476.40;1740729;80;25924;-58
2023/01/04 06:46:58;;;;;;;11.78;6.53;;;;;;;6.66;67.04;102484.75;1738198;82;25715;-58
2023/01/04 06:49:25;;;;;;;13.05;7.10;;;;;;;6.70;67.05;102490.34;1738184;82;27507;-58
2023/01/04 06:51:52;;;;;;;10.85;6.65;;;;;;;6.76;67.17;102494.09;1707907;83;25555;-58
2023/01/04 06:54:18;;;;;;;11.73;7.37;;;;;;;6.82;67.05;102491.59;1705034;83;25885;-59
2023/01/04 06:56:45;;;;;;;12.37;7.70;;;;;;;6.84;66.56;102495.07;1694051;83;25741;-58
2023/01/04 06:59:12;;;;;;;11.85;7.03;;;;;;;6.85;66.07;102501.71;1702634;84;25718;-58
2023/01/04 07:01:39;;;;;;;12.18;7.53;;;;;;;6.85;66.04;102507.06;1672551;85;26890;-58
2023/01/04 07:04:06;;;;;;;13.13;7.17;;;;;;;6.84;65.46;102510.67;1700686;83;25884;-58
2023/01/04 07:06:33;;;;;;;14.05;7.00;;;;;;;6.84;65.56;102517.81;1735214;82;25736;-59
2023/01/04 07:09:00;;;;;;;10.93;5.97;;;;;;;6.83;64.90;102521.42;1722665;82;25899;-58
2023/01/04 07:11:26;;;;;;;13.35;6.85;;;;;;;6.74;64.92;102522.23;1704141;83;25797;-59
2023/01/04 07:13:53;;;;;;;10.93;6.40;;;;;;;6.70;65.00;102531.34;1705929;84;27558;-58
2023/01/04 07:16:19;;;;;;;10.53;6.22;;;;;;;6.66;65.06;102531.55;1741270;82;25760;-58
2023/01/04 07:18:46;;;;;;;13.10;8.05;;;;;;;6.66;65.28;102531.55;1739542;82;25722;-59
2023/01/04 07:21:13;;;;;;;11.85;6.85;;;;;;;6.62;65.28;102529.93;1747330;82;25797;-59
2023/01/04 07:23:40;;;;;;;16.25;8.73;;;;;;;6.61;65.32;102541.56;1748642;82;25756;-59
2023/01/04 07:26:07;;;;;;;13.85;7.90;;;;;;;6.50;64.78;102540.22;1748928;82;27644;-59
2023/01/04 07:31:19;;;;;;;22.22;10.60;;;;;;;6.44;65.20;102538.30;1745090;80;25692;-59
2023/01/04 07:33:49;;;;;;;23.75;11.22;;;;;;;6.44;65.23;102537.81;1758867;80;25782;-59
2023/01/04 07:36:17;;;;;;;16.75;8.43;;;;;;;6.49;65.12;102546.98;1772187;80;25826;-58
2023/01/04 07:38:44;;;;;;;12.75;7.42;;;;;;;6.49;65.20;102551.87;1763986;80;27519;-59
2023/01/04 07:41:11;;;;;;;14.60;8.03;;;;;;;6.51;65.36;102542.44;1769357;81;25507;-59
2023/01/04 07:43:38;;;;;;;14.33;6.83;;;;;;;6.56;65.44;102540.42;1769049;81;25778;-59
2023/01/04 07:46:05;;;;;;;14.20;7.78;;;;;;;6.62;65.45;102541.52;1769167;81;25814;-58
2023/01/04 07:48:32;;;;;;;13.13;7.85;;;;;;;6.67;65.46;102542.65;1769204;81;25767;-58
2023/01/04 07:50:59;;;;;;;13.30;7.28;;;;;;;6.68;65.01;102545.25;1769377;81;27514;-58
2023/01/04 07:53:26;;;;;;;12.40;6.15;;;;;;;6.68;65.12;102547.06;1760891;80;26014;-58
2023/01/04 07:55:59;;;;;;;12.93;7.35;;;;;;;6.66;65.18;102553.80;1745076;80;25755;-59
2023/01/04 07:58:30;;;;;;;11.65;7.85;;;;;;;6.62;65.09;102551.32;1742432;82;25799;-59
2023/01/04 08:01:10;;;;;;;20.80;8.80;;;;;;;6.53;65.00;102553.46;1748529;82;25751;-59
2023/01/04 08:03:38;;;;;;;15.88;8.90;;;;;;;6.49;65.02;102557.22;1748427;82;27489;-59
2023/01/04 08:06:08;;;;;;;16.10;8.98;;;;;;;6.54;65.16;102557.02;1748100;81;25811;-59
2023/01/04 08:08:36;;;;;;;20.25;8.90;;;;;;;6.59;65.07;102559.02;1745499;80;25804;-59
2023/01/04 08:11:06;;;;;;;14.38;8.90;;;;;;;6.63;64.86;102555.73;1748524;82;26672;-59
2023/01/04 08:13:33;;;;;;;13.80;7.80;;;;;;;6.66;64.85;102552.46;1748202;82;25851;-59
2023/01/04 08:16:00;;;;;;;14.25;7.55;;;;;;;6.72;64.40;102548.66;1738196;82;27662;-59
2023/01/04 08:18:27;;;;;;;11.63;6.75;;;;;;;6.80;64.46;102549.66;1760579;80;25817;-58
2023/01/04 08:21:06;;;;;;;12.63;7.50;;;;;;;6.86;64.05;102558.75;1786397;80;25761;-58
2023/01/04 08:23:35;;;;;;;11.93;7.08;;;;;;;6.98;63.54;102552.86;1784648;79;26508;-59
2023/01/04 08:26:12;;;;;;;13.50;6.83;;;;;;;7.22;62.75;102554.50;1783115;80;25932;-58
2023/01/04 08:28:39;;;;;;;12.18;6.60;;;;;;;7.73;61.32;102550.30;1783349;80;27683;-59
2023/01/04 08:31:10;;;;;;;27.58;7.10;;;;;;;8.32;59.91;102556.80;1783010;80;25783;-59
2023/01/04 08:33:39;;;;;;;10.93;5.95;;;;;;;8.82;58.08;102555.16;1795982;79;25739;-58
2023/01/04 08:36:14;;;;;;;13.48;7.12;;;;;;;9.25;57.36;102553.34;1780967;79;26444;-59
2023/01/04 08:38:41;;;;;;;14.55;7.65;;;;;;;9.64;57.41;102552.55;1763316;79;26017;-59
2023/01/04 08:41:08;;;;;;;13.98;7.28;;;;;;;10.12;55.31;102549.37;1783445;80;27452;-59
2023/01/04 08:43:35;;;;;;;11.25;7.28;;;;;;;10.39;55.33;102552.77;1782412;80;25886;-60
2023/01/04 08:46:03;;;;;;;12.50;6.12;;;;;;;10.72;53.85;102543.61;1786348;80;25830;-59
2023/01/04 08:48:32;;;;;;;10.78;5.80;;;;;;;11.11;53.34;102548.84;1785487;80;26434;-59
2023/01/04 08:51:04;;;;;;;11.88;5.75;;;;;;;11.58;50.00;102535.99;1785466;80;25662;-59
2023/01/04 08:53:31;;;;;;;13.18;6.00;;;;;;;11.26;51.09;102538.05;1785159;80;27534;-60
2023/01/04 08:56:01;;;;;;;10.43;5.45;;;;;;;10.87;52.47;102543.16;1785303;80;25803;-59
2023/01/04 08:58:31;;;;;;;10.85;6.05;;;;;;;10.45;52.87;102532.67;1785485;80;25770;-59
2023/01/04 09:01:03;;;;;;;11.35;6.25;;;;;;;10.14;52.07;102528.61;1786055;80;25791;-60
2023/01/04 09:03:31;;;;;;;13.78;6.35;;;;;;;9.92;53.34;102526.80;1786512;80;25750;-60
2023/01/04 09:06:11;;;;;;;11.48;6.42;;;;;;;10.23;53.51;102529.02;1786036;80;27475;-61
2023/01/04 09:08:40;;;;;;;9.60;6.28;;;;;;;10.18;51.38;102522.56;1796721;79;25737;-60
2023/01/04 09:11:20;;;;;;;11.15;6.10;;;;;;;9.82;52.49;102525.09;1796676;79;25907;-60
2023/01/04 09:13:48;;;;;;;10.98;6.10;;;;;;;9.75;53.43;102526.41;1783735;79;26203;-60
2023/01/04 09:16:18;;;;;;;9.08;5.83;;;;;;;9.86;52.71;102528.02;1794470;79;25769;-60
2023/01/04 09:18:46;;;;;;;11.78;6.42;;;;;;;10.00;49.90;102519.14;1787947;78;27532;-60
2023/01/04 09:21:17;;;;;;;8.60;5.83;;;;;;;10.18;51.40;102513.16;1772095;79;25753;-59
2023/01/04 09:23:45;;;;;;;10.80;5.67;;;;;;;10.94;49.42;102502.77;1779488;79;26559;-60
2023/01/04 09:26:16;;;;;;;7.60;5.83;;;;;;;11.40;49.64;102504.34;1776079;79;25775;-60
2023/01/04 09:28:44;;;;;;;13.40;5.78;;;;;;;12.08;48.69;102486.91;1780226;79;25742;-60
2023/01/04 09:31:15;;;;;;;18.57;8.05;;;;;;;12.64;47.81;102487.16;1754126;81;28354;-61
2023/01/04 09:33:44;;;;;;;13.05;6.10;;;;;;;13.21;48.07;102479.05;1772280;80;25717;-60
2023/01/04 09:36:15;;;;;;;8.13;5.37;;;;;;;13.79;47.16;102477.11;1805078;79;25741;-60
2023/01/04 09:38:42;;;;;;;12.80;7.15;;;;;;;14.28;43.92;102474.32;1770060;78;25829;-60
2023/01/04 09:41:29;;;;;;;9.23;5.53;;;;;;;14.62;44.89;102469.84;1727595;82;25663;-60
2023/01/04 09:44:04;;;;;;;9.45;5.35;;;;;;;15.13;42.93;102455.46;1768857;80;27450;-61
2023/01/04 09:47:00;;;;;;;11.15;5.17;;;;;;;15.08;41.48;102465.83;1727351;83;25864;-60
2023/01/04 09:49:40;;;;;;;7.15;4.58;;;;;;;15.11;42.47;102463.73;1737095;80;25553;-61
2023/01/04 09:52:19;;;;;;;8.35;4.87;;;;;;;15.44;40.02;102463.30;1740361;81;25811;-60
2023/01/04 09:55:02;;;;;;;11.70;4.67;;;;;;;15.22;40.82;102461.48;1707763;83;25879;-60
2023/01/04 09:57:36;;;;;;;7.28;4.28;;;;;;;15.82;39.09;102459.75;1773783;80;27469;-60
2023/01/04 10:00:09;;;;;;;9.28;4.35;;;;;;;16.26;39.13;102456.47;1763558;80;25714;-60
2023/01/04 10:02:43;;;;;;;8.35;4.75;;;;;;;16.61;37.46;102456.24;1755443;80;25896;-61
2023/01/04 10:05:18;;;;;;;8.20;4.95;;;;;;;16.69;36.38;102453.20;1766279;80;25865;-60
2023/01/04 10:07:45;;;;;;;7.95;4.87;;;;;;;16.14;36.91;102445.81;1769869;80;25787;-61
2023/01/04 10:10:18;;;;;;;7.25;4.40;;;;;;;15.34;37.40;102461.84;1772813;80;27464;-60
2023/01/04 10:12:53;;;;;;;8.23;4.37;;;;;;;14.86;38.51;102458.06;1771300;80;26477;-60
2023/01/04 10:15:50;;;;;;;22.45;9.88;;;;;;;14.76;37.97;102455.72;1776872;80;25854;-61
2023/01/04 10:18:34;;;;;;;11.48;4.65;;;;;;;14.34;39.76;102451.70;1774300;80;25940;-61
2023/01/04 10:21:45;;;;;;;8.05;4.58;;;;;;;14.94;39.99;102436.63;1776005;80;43950;-60
2023/01/04 10:24:41;;;;;;;12.53;4.17;;;;;;;15.87;39.20;102434.97;1776276;80;27622;-60
2023/01/04 10:27:33;;;;;;;10.98;4.00;;;;;;;16.77;38.56;102432.14;1776676;79;25760;-60
2023/01/04 10:30:09;;;;;;;10.08;3.50;;;;;;;17.63;36.75;102423.99;1748932;80;25667;-60
2023/01/04 10:32:42;;;;;;;7.58;4.05;;;;;;;17.98;35.50;102427.54;1752618;79;25771;-60
2023/01/04 10:35:22;;;;;;;8.93;3.33;;;;;;;18.29;34.75;102415.07;1772122;79;25760;-60
2023/01/04 10:38:00;;;;;;;7.85;3.37;;;;;;;18.70;35.10;102409.34;1764769;79;27553;-60
2023/01/04 10:40:32;;;;;;;7.37;3.62;;;;;;;19.14;32.87;102399.19;1736832;82;25653;-59
2023/01/04 10:43:12;;;;;;;7.70;3.35;;;;;;;19.27;33.42;102391.98;1739172;81;25767;-60
2023/01/04 10:46:06;;;;;;;6.42;3.75;;;;;;;19.62;33.73;102394.89;1695192;79;26636;-59
2023/01/04 10:48:53;;;;;;;5.92;3.70;;;;;;;19.95;33.65;102379.65;1775263;79;25787;-59
2023/01/04 10:51:31;;;;;;;6.87;2.83;;;;;;;20.28;33.16;102385.36;1764966;80;28528;-59
2023/01/04 10:54:12;;;;;;;16.90;3.95;;;;;;;20.56;30.95;102386.54;1764042;80;25642;-59
2023/01/04 10:57:00;;;;;;;8.78;3.35;;;;;;;20.62;30.59;102386.37;1773399;80;25748;-60
2023/01/04 10:59:33;;;;;;;4.97;2.70;;;;;;;20.82;30.99;102380.19;1764582;80;26578;-59
2023/01/04 11:02:21;;;;;;;6.37;3.17;;;;;;;21.11;29.00;102371.55;1773186;80;25753;-61
2023/01/04 11:04:59;;;;;;;11.30;3.10;;;;;;;21.30;29.88;102364.55;1761820;80;27490;-60
2023/01/04 11:07:31;;;;;;;8.13;3.58;;;;;;;21.31;28.51;102370.38;1708275;82;25783;-61
2023/01/04 11:10:29;;;;;;;21.30;3.57;;;;;;;21.35;29.26;102364.92;1699234;83;25666;-60
2023/01/04 11:12:57;;;;;;;7.75;3.37;;;;;;;21.29;28.81;102359.61;1688298;84;26548;-60
2023/01/04 11:15:23;;;;;;;5.78;3.35;;;;;;;21.77;29.35;102354.88;1707508;82;25775;-60
2023/01/04 11:17:51;;;;;;;5.00;2.75;;;;;;;21.89;27.22;102355.72;1704426;83;27550;-60
2023/01/04 11:20:18;;;;;;;6.78;3.20;;;;;;;21.40;27.61;102352.94;1718643;82;25996;-60
2023/01/04 11:22:54;;;;;;;9.55;3.52;;;;;;;21.52;28.22;102354.33;1721930;82;25811;-60
2023/01/04 11:25:23;;;;;;;8.90;3.20;;;;;;;21.70;28.37;102350.59;1721282;82;26592;-60
2023/01/04 11:28:29;;;;;;;9.20;3.05;;;;;;;21.88;28.20;102342.17;1727043;82;26684;-60
2023/01/04 11:31:10;;;;;;;8.58;2.62;;;;;;;21.93;28.06;102345.77;1708106;82;27654;-60
2023/01/04 11:33:58;;;;;;;9.10;3.35;;;;;;;21.91;27.39;102344.58;1715093;82;25738;-60
2023/01/04 11:36:42;;;;;;;10.43;3.70;;;;;;;21.49;27.37;102345.08;1715950;82;25475;-61
2023/01/04 11:39:25;;;;;;;12.03;3.17;;;;;;;20.78;27.20;102352.31;1715601;82;26066;-60
2023/01/04 11:42:04;;;;;;;14.40;3.62;;;;;;;20.26;27.61;102349.13;1715166;82;25784;-60
2023/01/04 11:44:34;;;;;;;8.50;2.70;;;;;;;20.12;28.27;102346.48;1715675;82;27516;-62
2023/01/04 11:47:20;;;;;;;11.15;3.67;;;;;;;19.78;28.42;102343.16;1739230;82;25545;-59
2023/01/04 11:49:48;;;;;;;9.38;3.10;;;;;;;19.48;28.63;102341.19;1740156;82;25810;-59
2023/01/04 11:52:36;;;;;;;10.60;3.20;;;;;;;19.12;28.87;102339.83;1779285;79;25807;-59
2023/01/04 11:55:25;;;;;;;5.12;2.67;;;;;;;18.69;29.08;102340.00;1756622;80;25801;-60
2023/01/04 11:58:09;;;;;;;12.20;2.92;;;;;;;18.44;29.89;102339.69;1742805;81;28492;-59
2023/01/04 12:00:36;;;;;;;;;;;;;;;18.28;28.29;102337.59;1738041;81;25791;-60
2023/01/04 12:03:15;;;;;;;4.50;2.50;;;;;;;17.80;28.34;102340.77;1779953;80;25456;-60
2023/01/04 12:05:42;;;;;;;7.90;2.98;;;;;;;17.15;29.62;102345.42;1777004;80;25804;-60
2023/01/04 12:08:27;;;;;;;21.85;3.20;;;;;;;16.70;30.43;102345.38;1778481;80;25925;-60
2023/01/04 12:10:55;;;;;;;9.73;2.92;;;;;;;16.31;30.66;102334.35;1773943;80;27491;-60
2023/01/04 12:13:21;;;;;;;17.17;3.67;;;;;;;16.03;31.10;102346.28;1778526;78;25782;-59
2023/01/04 12:16:06;;;;;;;11.88;3.50;;;;;;;15.79;31.42;102335.17;1780453;80;25734;-60
2023/01/04 12:18:41;;;;;;;19.55;3.87;;;;;;;15.55;31.83;102340.84;1773479;80;25892;-59
2023/01/04 12:21:22;;;;;;;18.42;5.47;;;;;;;15.25;32.10;102330.23;1780765;80;25754;-59
2023/01/04 12:23:51;;;;;;;14.00;3.67;;;;;;;14.80;32.61;102333.95;1748833;80;27472;-59
2023/01/04 12:26:20;;;;;;;23.15;3.98;;;;;;;14.46;33.48;102341.56;1737961;80;25773;-60
2023/01/04 12:29:23;;;;;;;12.82;4.33;;;;;;;14.33;33.21;102332.22;1767595;80;25730;-59
2023/01/04 12:32:08;;;;;;;5.50;3.20;;;;;;;14.21;33.72;102324.59;1739032;82;25758;-59
2023/01/04 12:34:45;;;;;;;8.78;4.40;;;;;;;13.96;33.23;102329.71;1739557;81;25803;-59
2023/01/04 12:37:44;;;;;;;14.40;3.50;;;;;;;13.60;34.02;102336.52;1728826;82;28667;-59
2023/01/04 12:40:46;;;;;;;6.22;3.25;;;;;;;13.18;34.52;102344.66;1759838;80;25823;-61
2023/01/04 12:43:24;;;;;;;8.35;3.60;;;;;;;12.86;34.79;102340.66;1688489;83;25786;-60
2023/01/04 12:49:31;;;;;;;33.00;5.03;;;;;;;12.24;35.46;102336.14;1715271;83;26415;-60